Time;durP1;ratioP1;P1;durP2;ratioP2;P2;SDS_P1;SDS_P2;PMS_P1;PMS_P2;Temp;Humidity;BMP_temperature;BMP_pressure;BME280_temperature;BME280_humidity;BME280_pressure;Samples;Min_cycle;Max_cycle;Signal;HPM_P1;HPM_P2
2022/03/26 00:00:34;;;;;;;154.68;65.28;;;2.80;99.90;;;;;;5058084;28;20492;-52
2022/03/26 00:03:13;;;;;;;216.88;77.85;;;2.70;99.90;;;;;;5057966;28;20025;-52
2022/03/26 00:05:39;;;;;;;282.95;96.07;;;2.80;99.90;;;;;;5058382;28;20029;-52
2022/03/26 00:08:06;;;;;;;254.68;89.05;;;2.80;99.90;;;;;;5057831;28;20071;-52
2022/03/26 00:10:32;;;;;;;177.55;69.38;;;2.90;99.90;;;;;;5058112;28;20029;-52
2022/03/26 00:12:58;;;;;;;152.18;64.30;;;2.90;99.90;;;;;;5057873;28;20036;-52
2022/03/26 00:15:25;;;;;;;165.95;71.78;;;2.80;99.90;;;;;;5057891;28;20039;-52
2022/03/26 00:17:51;;;;;;;146.57;65.07;;;2.70;99.90;;;;;;5057538;28;20057;-52
2022/03/26 00:20:17;;;;;;;141.27;60.65;;;2.70;99.90;;;;;;5057812;28;20785;-52
2022/03/26 00:22:43;;;;;;;149.38;61.35;;;2.60;99.90;;;;;;5057557;28;20024;-52
2022/03/26 00:25:10;;;;;;;129.75;57.25;;;2.50;99.90;;;;;;5057662;28;20021;-52
2022/03/26 00:27:36;;;;;;;139.90;58.53;;;2.40;99.90;;;;;;5057659;28;20371;-52
2022/03/26 00:30:06;;;;;;;159.52;61.08;;;2.30;99.90;;;;;;5057708;28;20029;-52
2022/03/26 00:32:32;;;;;;;162.38;64.18;;;2.40;99.90;;;;;;5057117;28;20057;-52
2022/03/26 00:34:58;;;;;;;164.07;63.25;;;2.40;99.90;;;;;;5057585;28;20029;-52
2022/03/26 00:37:24;;;;;;;156.98;62.85;;;2.30;99.90;;;;;;5057522;28;20091;-52
2022/03/26 00:39:51;;;;;;;239.73;82.05;;;2.30;99.90;;;;;;5057332;28;20115;-52
2022/03/26 00:42:17;;;;;;;180.02;66.72;;;2.40;99.90;;;;;;5057351;28;20545;-52
2022/03/26 00:44:43;;;;;;;141.50;58.90;;;2.40;99.90;;;;;;5057082;28;20025;-52
2022/03/26 00:47:09;;;;;;;161.30;63.15;;;2.40;99.90;;;;;;5057426;28;20375;-52
2022/03/26 00:49:35;;;;;;;164.27;62.80;;;2.30;99.90;;;;;;5057058;28;20037;-52
2022/03/26 00:52:03;;;;;;;160.90;62.60;;;2.30;99.90;;;;;;5057048;28;20029;-52
2022/03/26 00:54:30;;;;;;;162.48;63.67;;;2.30;99.90;;;;;;5057126;28;20029;-52
2022/03/26 00:56:57;;;;;;;175.68;67.00;;;2.20;99.90;;;;;;5056837;28;20445;-52
2022/03/26 00:59:23;;;;;;;165.98;64.78;;;2.20;99.90;;;;;;5056964;28;20120;-52
2022/03/26 01:01:49;;;;;;;157.38;64.57;;;2.10;99.90;;;;;;5056838;28;20028;-52
2022/03/26 01:04:15;;;;;;;158.30;66.60;;;2.10;99.90;;;;;;5056936;28;20031;-52
2022/03/26 01:06:41;;;;;;;178.70;72.53;;;2.00;99.90;;;;;;5056845;28;20437;-52
2022/03/26 01:09:08;;;;;;;165.50;67.10;;;2.00;99.90;;;;;;5056772;28;20090;-52
2022/03/26 01:11:34;;;;;;;132.63;54.63;;;2.00;99.90;;;;;;5056817;28;20562;-52
2022/03/26 01:14:00;;;;;;;125.90;54.40;;;1.90;99.90;;;;;;5056586;28;20078;-52
2022/03/26 01:16:27;;;;;;;139.07;58.13;;;1.90;99.90;;;;;;5057041;28;20111;-52
2022/03/26 01:18:56;;;;;;;170.55;68.07;;;2.00;99.90;;;;;;5056529;28;20041;-52
2022/03/26 01:21:22;;;;;;;205.15;77.97;;;1.90;99.90;;;;;;5056503;28;20021;-52
2022/03/26 01:23:49;;;;;;;166.20;65.15;;;1.90;99.90;;;;;;5056730;28;20035;-52
2022/03/26 01:26:16;;;;;;;139.05;59.42;;;2.00;99.90;;;;;;5056625;28;20029;-52
2022/03/26 01:28:43;;;;;;;124.28;54.40;;;2.00;99.90;;;;;;5056411;28;20103;-52
2022/03/26 01:31:09;;;;;;;140.65;57.83;;;1.90;99.90;;;;;;5056643;28;20032;-52
2022/03/26 01:33:35;;;;;;;127.20;55.15;;;1.90;99.90;;;;;;5056366;28;20035;-52
2022/03/26 01:36:02;;;;;;;177.93;69.05;;;1.80;99.90;;;;;;5056323;28;20108;-52
2022/03/26 01:38:28;;;;;;;187.60;71.32;;;1.80;99.90;;;;;;5056335;28;20040;-52
2022/03/26 01:40:54;;;;;;;134.75;54.42;;;1.80;99.90;;;;;;5056422;28;20032;-52
2022/03/26 01:43:20;;;;;;;135.60;55.38;;;1.80;99.90;;;;;;5056039;28;20056;-52
2022/03/26 01:45:46;;;;;;;141.60;56.40;;;1.70;99.90;;;;;;5056007;28;20093;-52
2022/03/26 01:48:12;;;;;;;124.20;53.35;;;1.70;99.90;;;;;;5056073;28;20486;-52
2022/03/26 01:50:40;;;;;;;130.07;53.40;;;1.60;99.90;;;;;;5056081;28;20084;-52
2022/03/26 01:53:06;;;;;;;123.22;52.38;;;1.60;99.90;;;;;;5056007;28;20393;-52
2022/03/26 01:55:33;;;;;;;125.80;52.13;;;1.60;99.90;;;;;;5055809;28;20052;-52
2022/03/26 01:57:59;;;;;;;115.65;51.00;;;1.60;99.90;;;;;;5055667;28;20068;-52
2022/03/26 02:00:28;;;;;;;120.03;51.53;;;1.60;99.90;;;;;;5055697;28;20025;-52
2022/03/26 02:02:54;;;;;;;115.72;49.55;;;1.60;99.90;;;;;;5055802;28;20056;-52
2022/03/26 02:05:21;;;;;;;121.53;49.90;;;1.50;99.90;;;;;;5055750;28;20040;-52
2022/03/26 02:07:49;;;;;;;126.68;52.35;;;1.60;99.90;;;;;;5055849;28;20028;-52
2022/03/26 02:10:18;;;;;;;125.93;52.05;;;1.60;99.90;;;;;;5055823;28;20437;-52
2022/03/26 02:12:48;;;;;;;113.72;51.33;;;1.50;99.90;;;;;;5055534;28;20020;-52
2022/03/26 02:15:16;;;;;;;114.20;51.83;;;1.50;99.90;;;;;;5055329;28;20104;-52
2022/03/26 02:17:42;;;;;;;120.75;52.25;;;1.50;99.90;;;;;;5055631;28;20025;-52
2022/03/26 02:20:13;;;;;;;122.35;52.50;;;1.40;99.90;;;;;;5055407;28;20029;-52
2022/03/26 02:22:40;;;;;;;124.28;53.25;;;1.50;99.90;;;;;;5055366;28;20024;-52
2022/03/26 02:25:08;;;;;;;120.40;51.25;;;1.40;99.90;;;;;;5055362;28;20398;-52
2022/03/26 02:27:34;;;;;;;115.32;48.97;;;1.40;99.90;;;;;;5055386;28;20108;-52
2022/03/26 02:30:00;;;;;;;115.72;49.40;;;1.40;99.90;;;;;;5055241;28;20059;-52
2022/03/26 02:32:28;;;;;;;118.38;49.67;;;1.40;99.90;;;;;;5055405;28;20059;-53
2022/03/26 02:34:56;;;;;;;109.05;47.80;;;1.40;99.90;;;;;;5055309;28;20033;-53
2022/03/26 02:37:22;;;;;;;106.57;47.35;;;1.30;99.90;;;;;;5055180;28;20029;-52
2022/03/26 02:39:49;;;;;;;107.35;47.17;;;1.30;99.90;;;;;;5055057;28;20045;-53
2022/03/26 02:42:15;;;;;;;103.75;46.42;;;1.30;99.90;;;;;;5055226;28;20524;-53
2022/03/26 02:44:42;;;;;;;100.38;44.17;;;1.40;99.90;;;;;;5054861;28;20064;-53
2022/03/26 02:47:10;;;;;;;104.65;45.92;;;1.40;99.90;;;;;;5054955;28;20029;-53
2022/03/26 02:49:37;;;;;;;99.50;44.00;;;1.40;99.90;;;;;;5054875;28;20400;-53
2022/03/26 02:52:03;;;;;;;103.57;45.63;;;1.40;99.90;;;;;;5054785;28;20360;-53
2022/03/26 02:54:30;;;;;;;106.18;47.25;;;1.30;99.90;;;;;;5054848;28;20037;-53
2022/03/26 02:56:56;;;;;;;95.22;44.30;;;1.30;99.90;;;;;;5054661;28;20379;-53
2022/03/26 02:59:23;;;;;;;102.60;46.20;;;1.30;99.90;;;;;;5054740;28;20041;-53
2022/03/26 03:01:50;;;;;;;102.55;45.45;;;1.20;99.90;;;;;;5054666;28;20082;-53
2022/03/26 03:04:16;;;;;;;98.20;45.10;;;1.20;99.90;;;;;;5054722;28;20060;-53
2022/03/26 03:06:42;;;;;;;99.43;44.50;;;1.20;99.90;;;;;;5054783;28;20036;-53
2022/03/26 03:09:09;;;;;;;101.60;44.55;;;1.10;99.90;;;;;;5054578;28;20029;-52
2022/03/26 03:11:35;;;;;;;101.47;44.70;;;1.10;99.90;;;;;;5054398;28;20104;-53
2022/03/26 03:14:03;;;;;;;99.25;45.63;;;1.10;99.90;;;;;;5053745;28;20036;-53
2022/03/26 03:16:29;;;;;;;94.88;44.03;;;1.10;99.90;;;;;;5054486;28;20029;-53
2022/03/26 03:18:55;;;;;;;105.60;46.85;;;1.00;99.90;;;;;;5054766;28;20055;-53
2022/03/26 03:21:21;;;;;;;100.43;44.35;;;1.00;99.90;;;;;;5054401;28;20029;-53
2022/03/26 03:23:47;;;;;;;93.10;42.58;;;1.00;99.90;;;;;;5054261;28;20031;-53
2022/03/26 03:26:15;;;;;;;97.20;45.55;;;1.00;99.90;;;;;;5054435;28;20111;-53
2022/03/26 03:28:42;;;;;;;92.20;42.85;;;1.00;99.90;;;;;;5054537;28;20037;-53
2022/03/26 03:31:09;;;;;;;91.88;42.50;;;1.00;99.90;;;;;;5054303;28;20032;-53
2022/03/26 03:33:35;;;;;;;95.40;40.97;;;0.90;99.90;;;;;;5054145;28;20040;-53
2022/03/26 03:36:01;;;;;;;96.20;44.03;;;0.90;99.90;;;;;;5054196;28;20040;-53
2022/03/26 03:38:27;;;;;;;91.05;43.20;;;0.80;99.90;;;;;;5054237;28;20025;-53
2022/03/26 03:40:53;;;;;;;90.28;40.83;;;0.80;99.90;;;;;;5054339;28;20032;-53
2022/03/26 03:43:19;;;;;;;88.63;41.97;;;0.80;99.90;;;;;;5054278;28;20078;-53
2022/03/26 03:45:45;;;;;;;90.18;41.92;;;0.80;99.90;;;;;;5054005;28;20033;-53
2022/03/26 03:48:11;;;;;;;90.15;42.17;;;0.80;99.90;;;;;;5054333;28;20039;-53
2022/03/26 03:50:37;;;;;;;85.18;39.38;;;0.80;99.90;;;;;;5053970;28;20036;-52
2022/03/26 03:53:03;;;;;;;95.93;42.15;;;0.80;99.90;;;;;;5054100;28;20117;-53
2022/03/26 03:55:29;;;;;;;135.23;49.65;;;0.80;99.90;;;;;;5053904;28;20059;-53
2022/03/26 03:57:55;;;;;;;216.20;66.68;;;0.80;99.90;;;;;;5053967;28;20108;-53
2022/03/26 04:00:23;;;;;;;196.55;63.95;;;0.80;99.90;;;;;;5054096;28;20068;-53
2022/03/26 04:02:48;;;;;;;152.70;53.60;;;0.80;99.90;;;;;;5054161;28;20029;-52
2022/03/26 04:05:15;;;;;;;155.95;54.53;;;0.80;99.90;;;;;;5053989;28;20017;-53
2022/03/26 04:07:42;;;;;;;176.77;60.80;;;0.80;99.90;;;;;;5053968;28;20036;-53
2022/03/26 04:10:09;;;;;;;144.60;52.45;;;0.80;99.90;;;;;;5053923;28;20037;-53
2022/03/26 04:12:38;;;;;;;146.07;52.10;;;0.70;99.90;;;;;;5053972;28;20033;-53
2022/03/26 04:15:05;;;;;;;126.78;48.35;;;0.70;99.90;;;;;;5054005;28;20553;-53
2022/03/26 04:17:32;;;;;;;123.15;49.15;;;0.70;99.90;;;;;;5053884;28;20029;-52
2022/03/26 04:19:59;;;;;;;123.45;47.08;;;0.60;99.90;;;;;;5053934;28;20044;-53
2022/03/26 04:22:25;;;;;;;147.00;54.35;;;0.60;99.90;;;;;;5053676;28;20022;-53
2022/03/26 04:24:51;;;;;;;173.13;59.97;;;0.60;99.90;;;;;;5056453;28;20028;-53
2022/03/26 04:27:17;;;;;;;145.95;52.33;;;0.60;99.90;;;;;;5057511;28;20029;-53
2022/03/26 04:29:43;;;;;;;144.65;52.17;;;0.70;99.90;;;;;;5057501;28;20367;-53
2022/03/26 04:32:10;;;;;;;127.68;47.65;;;0.60;99.90;;;;;;5057403;28;20039;-53
2022/03/26 04:34:37;;;;;;;140.77;53.05;;;0.60;99.90;;;;;;5057626;28;20025;-52
2022/03/26 04:37:04;;;;;;;128.63;48.83;;;0.60;99.90;;;;;;5057166;28;20441;-53
2022/03/26 04:39:31;;;;;;;138.98;51.47;;;0.50;99.90;;;;;;5057308;28;20090;-53
2022/03/26 04:41:56;;;;;;;131.52;50.13;;;0.50;99.90;;;;;;5057305;28;20062;-53
2022/03/26 04:44:23;;;;;;;113.55;47.03;;;0.50;99.90;;;;;;5057239;28;20526;-53
2022/03/26 04:46:48;;;;;;;106.65;47.13;;;0.40;99.90;;;;;;5057196;28;20021;-53
2022/03/26 04:49:14;;;;;;;106.72;47.33;;;0.40;99.90;;;;;;5057168;28;20021;-53
2022/03/26 04:51:41;;;;;;;104.75;48.63;;;0.40;99.90;;;;;;5057008;28;20482;-53
2022/03/26 04:54:07;;;;;;;107.50;48.55;;;0.50;99.90;;;;;;5057111;28;20071;-53
2022/03/26 04:56:33;;;;;;;112.07;49.78;;;0.50;99.90;;;;;;5056694;28;20053;-53
2022/03/26 04:58:59;;;;;;;102.07;46.65;;;0.60;99.90;;;;;;5056875;28;20035;-53
2022/03/26 05:01:25;;;;;;;115.47;49.35;;;0.70;99.90;;;;;;5056939;28;20102;-53
2022/03/26 05:03:51;;;;;;;128.30;52.88;;;0.80;99.90;;;;;;5056877;28;20036;-53
2022/03/26 05:06:17;;;;;;;104.70;47.88;;;0.90;99.90;;;;;;5056790;28;20021;-53
2022/03/26 05:08:43;;;;;;;119.63;54.00;;;1.10;99.90;;;;;;5056667;28;20203;-53
2022/03/26 05:11:09;;;;;;;117.25;54.40;;;1.30;99.90;;;;;;5056923;28;20313;-53
2022/03/26 05:13:35;;;;;;;131.00;60.33;;;1.30;99.90;;;;;;5056850;28;20074;-53
2022/03/26 05:16:03;;;;;;;105.57;48.13;;;1.30;99.90;;;;;;5056732;28;20115;-53
2022/03/26 05:18:29;;;;;;;105.55;48.28;;;1.40;99.90;;;;;;5056567;28;20471;-53
2022/03/26 05:20:58;;;;;;;109.95;49.72;;;1.50;99.90;;;;;;5056454;28;20290;-53
2022/03/26 05:23:25;;;;;;;128.07;54.03;;;1.60;99.90;;;;;;5056557;28;20032;-53
2022/03/26 05:25:51;;;;;;;125.60;52.88;;;1.60;99.90;;;;;;5056569;28;20029;-53
2022/03/26 05:28:17;;;;;;;116.57;52.00;;;1.70;99.90;;;;;;5056546;28;20075;-53
2022/03/26 05:30:43;;;;;;;144.65;59.95;;;1.80;99.90;;;;;;5056321;28;20041;-53
2022/03/26 05:33:09;;;;;;;152.25;68.25;;;2.10;99.90;;;;;;5056189;28;20083;-53
2022/03/26 05:35:35;;;;;;;177.52;74.22;;;2.30;99.90;;;;;;5055385;28;20025;-53
2022/03/26 05:38:01;;;;;;;169.80;71.88;;;2.50;99.90;;;;;;5056089;28;20033;-53
2022/03/26 05:40:27;;;;;;;169.68;71.53;;;2.70;99.90;;;;;;5056412;28;20029;-53
2022/03/26 05:42:53;;;;;;;158.50;68.53;;;2.90;99.90;;;;;;5055091;28;20466;-53
2022/03/26 05:45:19;;;;;;;160.32;70.10;;;3.20;99.90;;;;;;5055922;28;20013;-53
2022/03/26 05:47:48;;;;;;;157.27;65.57;;;3.40;99.90;;;;;;5056001;28;20021;-53
2022/03/26 05:50:14;;;;;;;151.02;66.00;;;3.60;99.90;;;;;;5056179;28;20506;-53
2022/03/26 05:52:41;;;;;;;140.95;58.90;;;3.80;99.90;;;;;;5055828;28;20394;-53
2022/03/26 05:55:08;;;;;;;141.38;57.00;;;4.10;99.90;;;;;;5055961;28;20053;-53
2022/03/26 05:57:34;;;;;;;139.18;60.58;;;4.30;99.90;;;;;;5056102;28;20029;-53
2022/03/26 06:00:00;;;;;;;139.85;59.08;;;4.40;99.90;;;;;;5055885;28;20025;-53
2022/03/26 06:02:27;;;;;;;138.48;59.13;;;4.50;99.90;;;;;;5055861;28;20029;-53
2022/03/26 06:04:52;;;;;;;154.20;61.88;;;4.60;99.90;;;;;;5056066;28;20108;-53
2022/03/26 06:07:18;;;;;;;134.88;60.08;;;4.80;99.90;;;;;;5055633;28;20502;-52
2022/03/26 06:09:44;;;;;;;141.13;59.40;;;5.00;99.90;;;;;;5055750;28;20033;-52
2022/03/26 06:12:10;;;;;;;125.07;56.40;;;5.10;99.90;;;;;;5055847;28;20025;-53
2022/03/26 06:14:36;;;;;;;130.73;56.28;;;5.40;99.90;;;;;;5055656;28;20028;-52
2022/03/26 06:17:03;;;;;;;129.38;56.28;;;5.70;99.90;;;;;;5055418;28;20040;-52
2022/03/26 06:19:29;;;;;;;131.70;52.63;;;6.00;99.90;;;;;;5055368;28;20514;-53
2022/03/26 06:21:55;;;;;;;123.65;54.17;;;6.30;99.90;;;;;;5055309;28;20032;-52
2022/03/26 06:24:21;;;;;;;123.45;53.55;;;6.40;99.90;;;;;;5055400;28;20033;-53
2022/03/26 06:26:48;;;;;;;119.18;53.15;;;6.60;99.90;;;;;;5055278;28;20037;-53
2022/03/26 06:29:18;;;;;;;124.93;52.95;;;6.90;99.90;;;;;;5055490;28;20025;-53
2022/03/26 06:31:48;;;;;;;112.13;52.80;;;7.10;99.90;;;;;;5055109;28;20478;-53
2022/03/26 06:34:15;;;;;;;112.10;51.50;;;7.30;99.90;;;;;;5055112;28;20036;-53
2022/03/26 06:36:41;;;;;;;124.25;52.97;;;7.70;99.90;;;;;;5055332;28;20036;-53
2022/03/26 06:39:07;;;;;;;128.77;54.25;;;7.80;99.90;;;;;;5054853;28;20047;-53
2022/03/26 06:41:40;;;;;;;117.57;53.38;;;8.00;99.90;;;;;;5054847;28;20032;-53
2022/03/26 06:44:08;;;;;;;135.05;53.00;;;8.40;99.60;;;;;;5054939;28;20056;-53
2022/03/26 06:46:35;;;;;;;114.25;52.35;;;8.70;98.80;;;;;;5054656;28;20025;-53
2022/03/26 06:49:02;;;;;;;108.65;49.35;;;9.00;97.10;;;;;;5054925;28;20036;-53
2022/03/26 06:51:28;;;;;;;121.43;51.70;;;9.40;97.80;;;;;;5054998;28;20029;-53
2022/03/26 06:53:54;;;;;;;134.35;53.72;;;9.40;96.30;;;;;;5054851;28;20091;-53
2022/03/26 06:56:20;;;;;;;154.88;55.92;;;9.80;95.80;;;;;;5054448;28;20122;-53
2022/03/26 06:58:46;;;;;;;123.57;54.75;;;10.00;95.90;;;;;;5054855;28;20033;-53
2022/03/26 07:01:12;;;;;;;133.20;55.38;;;10.20;95.10;;;;;;5054841;28;20043;-53
2022/03/26 07:03:38;;;;;;;125.20;54.90;;;10.40;94.90;;;;;;5054567;28;20429;-53
2022/03/26 07:06:04;;;;;;;130.00;55.35;;;10.70;95.40;;;;;;5054664;28;20040;-53
2022/03/26 07:08:30;;;;;;;120.80;55.15;;;11.20;92.70;;;;;;5054572;28;20025;-53
2022/03/26 07:10:56;;;;;;;121.90;56.60;;;11.50;92.00;;;;;;5054499;28;20536;-53
2022/03/26 07:13:22;;;;;;;119.65;54.08;;;11.70;91.50;;;;;;5054664;28;20508;-53
2022/03/26 07:15:48;;;;;;;115.60;55.33;;;11.70;91.00;;;;;;5054627;28;20039;-53
2022/03/26 07:18:15;;;;;;;138.27;56.38;;;12.10;88.90;;;;;;5054454;28;20036;-53
2022/03/26 07:20:41;;;;;;;135.88;54.03;;;12.20;86.30;;;;;;5054427;28;20031;-53
2022/03/26 07:23:07;;;;;;;102.32;47.78;;;12.40;87.60;;;;;;5054376;28;20549;-53
2022/03/26 07:25:34;;;;;;;95.43;48.15;;;12.60;82.90;;;;;;5054334;28;20025;-53
2022/03/26 07:28:01;;;;;;;95.95;46.47;;;12.70;78.90;;;;;;5054570;28;20041;-53
2022/03/26 07:30:27;;;;;;;134.63;47.42;;;13.20;75.70;;;;;;5054385;28;20033;-53
2022/03/26 07:32:53;;;;;;;91.03;38.97;;;13.20;74.20;;;;;;5054153;28;20033;-53
2022/03/26 07:35:19;;;;;;;90.40;39.03;;;13.50;67.00;;;;;;5054329;28;20063;-53
2022/03/26 07:37:45;;;;;;;98.95;37.33;;;13.90;61.80;;;;;;5054316;28;20108;-53
2022/03/26 07:40:12;;;;;;;76.78;36.90;;;14.30;57.10;;;;;;5054041;28;20446;-53
2022/03/26 07:42:38;;;;;;;90.50;39.42;;;14.60;58.10;;;;;;5054334;28;20021;-53
2022/03/26 07:45:05;;;;;;;83.05;42.33;;;14.80;60.80;;;;;;5053996;28;20048;-53
2022/03/26 07:47:38;;;;;;;75.97;37.63;;;15.20;56.20;;;;;;5054233;28;20035;-53
2022/03/26 07:50:06;;;;;;;81.13;38.75;;;15.70;54.00;;;;;;5053932;28;20390;-53
2022/03/26 07:52:33;;;;;;;90.43;39.75;;;16.00;47.70;;;;;;5053938;28;20382;-53
2022/03/26 07:54:59;;;;;;;87.22;41.90;;;16.30;48.40;;;;;;5053925;28;20041;-54
2022/03/26 07:57:27;;;;;;;87.72;40.28;;;16.30;47.50;;;;;;5054078;28;20498;-53
2022/03/26 07:59:53;;;;;;;82.05;40.22;;;16.30;46.80;;;;;;5056565;28;20045;-53
2022/03/26 08:02:19;;;;;;;76.50;38.80;;;16.70;48.50;;;;;;5057913;28;20043;-53
2022/03/26 08:04:46;;;;;;;80.10;39.38;;;17.40;43.80;;;;;;5057937;28;20100;-53
2022/03/26 08:07:12;;;;;;;80.97;37.92;;;17.20;43.50;;;;;;5058006;28;20023;-53
2022/03/26 08:09:38;;;;;;;69.85;38.10;;;17.10;45.10;;;;;;5057959;28;20086;-54
2022/03/26 08:12:05;;;;;;;76.35;38.60;;;17.60;41.80;;;;;;5057939;28;20029;-54
2022/03/26 08:14:33;;;;;;;69.07;39.20;;;18.00;41.90;;;;;;5057784;28;20028;-54
2022/03/26 08:16:59;;;;;;;73.40;38.83;;;18.20;41.70;;;;;;5058106;28;20103;-54
2022/03/26 08:19:25;;;;;;;83.40;38.67;;;17.70;40.80;;;;;;5057782;28;20060;-54
2022/03/26 08:21:51;;;;;;;71.13;38.35;;;17.70;41.90;;;;;;5057349;28;20102;-53
2022/03/26 08:24:17;;;;;;;65.95;36.67;;;17.70;41.60;;;;;;5057663;28;20033;-54
2022/03/26 08:26:43;;;;;;;89.45;40.75;;;17.90;40.60;;;;;;5057853;28;20104;-54
2022/03/26 08:29:10;;;;;;;66.32;37.92;;;18.20;42.70;;;;;;5057588;28;20470;-54
2022/03/26 08:31:36;;;;;;;68.30;37.85;;;18.70;39.90;;;;;;5057264;28;20037;-54
2022/03/26 08:34:02;;;;;;;70.43;39.05;;;19.20;38.10;;;;;;5057524;28;20032;-54
2022/03/26 08:36:30;;;;;;;80.28;40.35;;;19.50;38.60;;;;;;5057316;28;20082;-54
2022/03/26 08:38:57;;;;;;;83.78;39.75;;;19.20;40.60;;;;;;5055931;28;20036;-54
2022/03/26 08:41:23;;;;;;;65.78;37.45;;;19.70;38.30;;;;;;5057671;28;20036;-54
2022/03/26 08:43:51;;;;;;;65.82;38.72;;;19.50;36.40;;;;;;5057210;28;20060;-54
2022/03/26 08:46:18;;;;;;;71.05;38.70;;;19.60;37.90;;;;;;5057194;28;20125;-54
2022/03/26 08:48:45;;;;;;;64.40;34.63;;;20.50;35.20;;;;;;5057282;28;20029;-54
2022/03/26 08:51:11;;;;;;;66.97;35.08;;;21.10;34.00;;;;;;5057107;28;20060;-54
2022/03/26 08:53:37;;;;;;;74.05;35.60;;;21.60;34.00;;;;;;5057025;28;20041;-54
2022/03/26 08:56:05;;;;;;;55.88;33.90;;;21.70;32.70;;;;;;5056835;28;20132;-54
2022/03/26 08:58:31;;;;;;;54.67;32.33;;;21.40;32.10;;;;;;5056832;28;20040;-54
2022/03/26 09:00:57;;;;;;;57.33;30.88;;;21.70;30.60;;;;;;5057003;28;20044;-54
2022/03/26 09:03:23;;;;;;;54.70;32.65;;;22.00;30.80;;;;;;5056881;28;20140;-54
2022/03/26 09:05:50;;;;;;;59.22;30.63;;;21.70;29.90;;;;;;5056889;28;20021;-54
2022/03/26 09:08:16;;;;;;;55.00;30.83;;;21.80;29.60;;;;;;5056898;28;20017;-54
2022/03/26 09:10:43;;;;;;;61.13;30.08;;;22.10;29.60;;;;;;5055361;28;20021;-54
2022/03/26 09:13:10;;;;;;;86.75;44.85;;;22.70;29.90;;;;;;5056809;28;20406;-54
2022/03/26 09:15:36;;;;;;;53.75;29.73;;;23.10;29.10;;;;;;5056509;28;20383;-54
2022/03/26 09:18:02;;;;;;;59.10;28.63;;;23.40;29.20;;;;;;5056531;28;20029;-54
2022/03/26 09:20:28;;;;;;;49.42;25.55;;;23.30;28.90;;;;;;5056731;28;20029;-54
2022/03/26 09:22:54;;;;;;;48.58;24.42;;;22.60;28.70;;;;;;5056479;28;20147;-54
2022/03/26 09:25:21;;;;;;;43.55;23.65;;;22.80;28.90;;;;;;5056572;28;20051;-54
2022/03/26 09:27:48;;;;;;;47.13;21.63;;;22.70;29.30;;;;;;5056525;28;20041;-54
2022/03/26 09:30:15;;;;;;;40.25;19.40;;;23.10;28.50;;;;;;5056460;28;20061;-54
2022/03/26 09:32:44;;;;;;;35.78;16.17;;;22.90;27.60;;;;;;5056465;28;20056;-54
2022/03/26 09:35:11;;;;;;;34.50;16.92;;;22.70;26.00;;;;;;5056542;28;20029;-54
2022/03/26 09:37:38;;;;;;;40.65;18.13;;;22.50;27.30;;;;;;5056505;28;20142;-54
2022/03/26 09:40:05;;;;;;;42.63;17.40;;;23.60;27.20;;;;;;5056027;28;20040;-54
2022/03/26 09:42:33;;;;;;;30.98;16.95;;;24.10;26.10;;;;;;5056229;28;20032;-54
2022/03/26 09:44:59;;;;;;;74.90;21.00;;;23.50;25.80;;;;;;5056046;28;20057;-54
2022/03/26 09:47:25;;;;;;;33.25;17.63;;;24.00;25.60;;;;;;5056039;28;20459;-54
2022/03/26 09:49:51;;;;;;;27.83;16.48;;;24.10;25.00;;;;;;5056184;28;20033;-54
2022/03/26 09:52:17;;;;;;;30.60;16.55;;;24.30;24.60;;;;;;5055942;28;20056;-54
2022/03/26 09:54:44;;;;;;;28.77;14.68;;;23.90;24.40;;;;;;5055846;28;20144;-54
2022/03/26 09:57:09;;;;;;;30.13;14.95;;;23.90;24.60;;;;;;5056104;28;20032;-54
2022/03/26 09:59:36;;;;;;;29.13;14.55;;;23.60;24.40;;;;;;5055944;28;20035;-54
2022/03/26 10:02:03;;;;;;;26.13;14.15;;;23.30;24.00;;;;;;5055793;28;20386;-54
2022/03/26 10:04:41;;;;;;;24.48;13.75;;;23.20;24.60;;;;;;5055755;28;20029;-54
2022/03/26 10:07:08;;;;;;;27.63;12.13;;;23.70;24.30;;;;;;5055746;28;20386;-54
2022/03/26 10:09:40;;;;;;;29.30;12.73;;;24.20;23.90;;;;;;5055631;28;20659;-54
2022/03/26 10:12:10;;;;;;;17.42;9.40;;;24.70;23.40;;;;;;5055607;28;20033;-54
2022/03/26 10:14:45;;;;;;;17.33;9.27;;;24.70;22.10;;;;;;5055422;28;20033;-54
2022/03/26 10:17:22;;;;;;;46.00;11.10;;;24.70;21.90;;;;;;5055761;28;20262;-54
2022/03/26 10:19:49;;;;;;;159.52;20.65;;;25.00;21.50;;;;;;5055431;28;20061;-54
2022/03/26 10:22:28;;;;;;;25.80;6.13;;;24.00;20.10;;;;;;5054971;28;20021;-54
2022/03/26 10:25:00;;;;;;;17.42;7.68;;;24.20;20.10;;;;;;5055450;28;20052;-54
2022/03/26 10:27:26;;;;;;;12.95;6.95;;;24.50;19.80;;;;;;5055530;28;20120;-54
2022/03/26 10:29:57;;;;;;;13.68;6.95;;;24.40;20.30;;;;;;5055581;28;20067;-54
2022/03/26 10:32:41;;;;;;;16.42;7.00;;;23.60;21.20;;;;;;5055067;28;20128;-54
2022/03/26 10:35:21;;;;;;;10.68;7.13;;;24.30;21.30;;;;;;5055631;28;20044;-54
2022/03/26 10:38:01;;;;;;;34.35;11.15;;;24.80;20.40;;;;;;5055130;28;20474;-54
2022/03/26 10:40:34;;;;;;;13.00;8.10;;;25.10;20.70;;;;;;5055228;28;20108;-54
2022/03/26 10:43:13;;;;;;;14.00;7.65;;;24.80;20.20;;;;;;5055070;28;20035;-54
2022/03/26 10:45:51;;;;;;;20.73;7.72;;;25.10;21.00;;;;;;5054867;28;20502;-54
2022/03/26 10:48:24;;;;;;;13.93;6.35;;;25.40;20.70;;;;;;5054822;28;20097;-54
2022/03/26 10:50:59;;;;;;;12.27;6.03;;;24.80;18.80;;;;;;5054865;28;20090;-54
2022/03/26 10:53:42;;;;;;;17.00;6.43;;;24.30;19.20;;;;;;5055054;28;20031;-54
2022/03/26 10:56:10;;;;;;;15.13;7.07;;;24.40;19.70;;;;;;5054628;28;20049;-54
2022/03/26 10:58:38;;;;;;;16.88;6.40;;;24.30;20.80;;;;;;5054610;28;20059;-54
2022/03/26 11:01:05;;;;;;;13.10;6.93;;;24.80;20.50;;;;;;5054618;28;20459;-54
2022/03/26 11:03:34;;;;;;;24.65;6.93;;;25.20;19.60;;;;;;5054673;28;20032;-54
2022/03/26 11:06:01;;;;;;;13.43;6.50;;;25.60;19.60;;;;;;5054721;28;20048;-54
2022/03/26 11:08:34;;;;;;;13.15;6.15;;;25.40;18.80;;;;;;5054939;28;20028;-54
2022/03/26 11:11:07;;;;;;;16.40;7.78;;;25.40;19.20;;;;;;5054680;28;20117;-54
2022/03/26 11:13:36;;;;;;;11.98;5.13;;;25.60;19.70;;;;;;5054548;28;20475;-54
2022/03/26 11:16:21;;;;;;;12.80;5.35;;;26.10;19.20;;;;;;5054517;28;20040;-54
2022/03/26 11:19:00;;;;;;;14.07;6.05;;;25.50;17.90;;;;;;5054348;28;20113;-54
2022/03/26 11:21:44;;;;;;;12.30;6.22;;;24.10;17.90;;;;;;5054443;28;20048;-54
2022/03/26 11:24:28;;;;;;;16.02;5.68;;;24.00;18.10;;;;;;5034882;28;20100;-54
2022/03/26 11:27:15;;;;;;;13.90;5.88;;;23.30;18.50;;;;;;5034442;28;20136;-54
2022/03/26 11:30:02;;;;;;;12.55;6.28;;;23.10;19.10;;;;;;5034503;28;20056;-54
2022/03/26 11:32:36;;;;;;;20.60;6.75;;;24.10;19.10;;;;;;5034381;28;20025;-54
2022/03/26 11:35:09;;;;;;;9.35;5.82;;;24.80;19.00;;;;;;5033598;28;20436;-54
2022/03/26 11:37:49;;;;;;;10.02;5.32;;;25.20;18.80;;;;;;5034327;28;20033;-54
2022/03/26 11:40:43;;;;;;;20.63;7.40;;;26.00;18.60;;;;;;5034234;28;20043;-54
2022/03/26 11:43:15;;;;;;;10.32;6.03;;;25.50;17.20;;;;;;5034325;28;20049;-54
2022/03/26 11:51:24;;;;;;;13.98;6.07;;;25.10;17.50;;;;;;5054149;28;20028;-54
2022/03/26 11:54:05;;;;;;;17.13;7.32;;;25.30;18.00;;;;;;5054113;28;20029;-54
2022/03/26 11:56:33;;;;;;;12.95;5.95;;;25.90;17.50;;;;;;5053859;28;20098;-54
2022/03/26 11:59:06;;;;;;;13.02;5.95;;;25.40;17.00;;;;;;5054048;28;20021;-54
2022/03/26 12:01:36;;;;;;;10.48;6.10;;;25.00;17.00;;;;;;5054163;28;20033;-54
2022/03/26 12:04:11;;;;;;;20.45;8.30;;;24.60;17.00;;;;;;5053961;28;20486;-54
2022/03/26 12:06:48;;;;;;;15.57;6.45;;;24.40;17.20;;;;;;5053992;28;20044;-54
2022/03/26 12:09:34;;;;;;;20.48;7.68;;;24.40;17.70;;;;;;5053851;28;20036;-54
2022/03/26 12:14:33;;;;;;;25.58;7.30;;;24.80;18.70;;;;;;5053997;28;20235;-54
2022/03/26 12:17:00;;;;;;;15.00;6.70;;;25.20;18.20;;;;;;5054079;28;20029;-54
2022/03/26 12:19:41;;;;;;;21.42;7.38;;;25.30;18.50;;;;;;5053854;28;20451;-54
2022/03/26 12:22:27;;;;;;;12.88;6.32;;;26.10;19.00;;;;;;5053854;28;20036;-54
2022/03/26 12:25:00;;;;;;;24.65;9.10;;;26.20;18.20;;;;;;5053973;28;20116;-54
2022/03/26 12:27:27;;;;;;;23.23;7.82;;;26.40;18.00;;;;;;5054146;28;20033;-54
2022/03/26 12:29:54;;;;;;;17.73;8.00;;;25.80;17.90;;;;;;5053717;28;20041;-54
2022/03/26 12:32:21;;;;;;;27.88;8.25;;;25.60;17.70;;;;;;5053637;28;20041;-54
2022/03/26 12:35:05;;;;;;;16.70;8.20;;;25.30;17.40;;;;;;5053735;28;20056;-54
2022/03/26 12:37:33;;;;;;;25.05;9.10;;;25.60;17.70;;;;;;5053805;28;20044;-54
2022/03/26 12:40:00;;;;;;;15.50;6.82;;;25.80;17.50;;;;;;5053771;28;20348;-54